Time;durP1;ratioP1;P1;durP2;ratioP2;P2;SDS_P1;SDS_P2;PMS_P1;PMS_P2;Temp;Humidity;BMP_temperature;BMP_pressure;BME280_temperature;BME280_humidity;BME280_pressure;Samples;Min_cycle;Max_cycle;Signal;HPM_P1;HPM_P2
2022/12/28 00:02:23;;;;;;;7.43;3.33;;;5.30;99.90;;;;;;6189044;23;20000;-78
2022/12/28 00:04:49;;;;;;;6.43;3.03;;;5.30;99.90;;;;;;6215429;23;20379;-78
2022/12/28 00:07:15;;;;;;;10.30;3.10;;;5.30;99.90;;;;;;6188785;23;20606;-78
2022/12/28 00:09:41;;;;;;;7.97;3.60;;;5.20;99.90;;;;;;6188382;23;20009;-78
2022/12/28 00:12:07;;;;;;;10.40;2.95;;;5.20;99.90;;;;;;6215799;23;19997;-78
2022/12/28 00:14:33;;;;;;;7.05;3.13;;;5.30;99.90;;;;;;6188811;23;20016;-78
2022/12/28 00:16:58;;;;;;;9.27;3.42;;;5.30;99.90;;;;;;6188998;23;20004;-78
2022/12/28 00:19:24;;;;;;;8.43;2.63;;;5.30;99.90;;;;;;6215017;23;20736;-78
2022/12/28 00:21:52;;;;;;;7.95;3.45;;;5.30;99.90;;;;;;6188879;23;20005;-78
2022/12/28 00:24:20;;;;;;;9.52;3.53;;;5.20;99.90;;;;;;6188966;23;20012;-78
2022/12/28 00:26:46;;;;;;;11.75;3.22;;;5.30;99.90;;;;;;6188572;23;20001;-79
2022/12/28 00:29:12;;;;;;;5.40;3.72;;;5.30;99.90;;;;;;6188760;23;20003;-78
2022/12/28 00:31:37;;;;;;;9.75;3.15;;;5.20;99.90;;;;;;6215975;23;20001;-79
2022/12/28 00:34:03;;;;;;;9.55;2.92;;;5.30;99.90;;;;;;6215079;23;20032;-78
2022/12/28 00:36:30;;;;;;;9.52;2.72;;;5.40;99.90;;;;;;6214840;23;20000;-79
2022/12/28 00:38:56;;;;;;;11.00;3.50;;;5.30;99.90;;;;;;6188289;23;20004;-79
2022/12/28 00:41:21;;;;;;;7.03;2.67;;;5.30;99.90;;;;;;6214496;23;20131;-79
2022/12/28 00:43:47;;;;;;;5.93;2.70;;;5.30;99.90;;;;;;6214965;23;20424;-79
2022/12/28 00:46:13;;;;;;;7.40;2.80;;;5.30;99.90;;;;;;6215117;23;20003;-79
2022/12/28 00:48:42;;;;;;;9.70;2.63;;;5.30;99.90;;;;;;6188240;23;20008;-79
2022/12/28 00:51:14;;;;;;;9.10;2.88;;;5.30;99.90;;;;;;6188323;23;19996;-79
2022/12/28 00:53:40;;;;;;;12.70;3.13;;;5.30;99.90;;;;;;6188568;23;20004;-79
2022/12/28 00:56:15;;;;;;;10.82;3.03;;;5.30;99.90;;;;;;6188167;23;20028;-79
2022/12/28 00:58:44;;;;;;;10.85;2.92;;;5.40;99.90;;;;;;6215030;23;20009;-79
2022/12/28 01:01:27;;;;;;;8.40;2.80;;;5.40;99.90;;;;;;6187945;23;20008;-79
2022/12/28 01:04:00;;;;;;;11.38;3.03;;;5.40;99.90;;;;;;6215774;23;20079;-79
2022/12/28 01:06:27;;;;;;;9.43;2.47;;;5.30;99.90;;;;;;6216273;23;20005;-79
2022/12/28 01:08:54;;;;;;;5.25;3.05;;;5.30;99.90;;;;;;6189253;23;20028;-79
2022/12/28 01:11:28;;;;;;;8.52;2.47;;;5.20;99.90;;;;;;6188551;23;20008;-79
2022/12/28 01:13:56;;;;;;;8.10;2.33;;;5.20;99.90;;;;;;6189761;23;20005;-81
2022/12/28 01:16:25;;;;;;;6.32;2.28;;;5.20;99.90;;;;;;6190663;23;20004;-83
2022/12/28 01:18:54;;;;;;;16.02;3.13;;;5.20;99.90;;;;;;6190659;23;20004;-83
2022/12/28 01:21:24;;;;;;;8.10;2.30;;;5.10;99.90;;;;;;6216587;23;20014;-82
2022/12/28 01:23:52;;;;;;;;;;;5.10;99.90;;;;;;6190702;23;20383;-82
2022/12/28 01:26:22;;;;;;;9.80;2.67;;;5.10;99.90;;;;;;6190053;23;19900;-82
2022/12/28 01:28:47;;;;;;;8.60;2.75;;;5.10;99.90;;;;;;6216791;23;20019;-82
2022/12/28 01:31:16;;;;;;;5.07;2.50;;;5.10;99.90;;;;;;6189142;23;20091;-82
2022/12/28 01:33:45;;;;;;;6.55;2.10;;;5.10;99.90;;;;;;6189405;23;20087;-81
2022/12/28 01:36:20;;;;;;;8.57;2.35;;;5.10;99.90;;;;;;6191050;23;20008;-82
2022/12/28 01:38:50;;;;;;;8.23;3.30;;;5.10;99.90;;;;;;6218079;23;20004;-81
2022/12/28 01:41:18;;;;;;;7.53;2.00;;;5.10;99.90;;;;;;6191273;23;20008;-81
2022/12/28 01:44:06;;;;;;;6.18;2.28;;;5.10;99.90;;;;;;6191639;23;20020;-81
2022/12/28 01:46:49;;;;;;;5.70;2.50;;;5.10;99.90;;;;;;6191549;23;20028;-82
2022/12/28 01:49:33;;;;;;;5.18;2.35;;;5.10;99.90;;;;;;6217974;23;20035;-82
2022/12/28 01:52:24;;;;;;;5.85;1.98;;;5.10;99.90;;;;;;6191520;23;20087;-82
2022/12/28 01:55:12;;;;;;;5.53;2.67;;;5.10;99.90;;;;;;6191526;23;20497;-81
2022/12/28 01:57:46;;;;;;;4.00;2.25;;;5.10;99.90;;;;;;6190628;23;20000;-81
2022/12/28 02:00:14;;;;;;;10.43;2.22;;;5.10;99.90;;;;;;6217950;23;20008;-81
2022/12/28 02:02:46;;;;;;;5.70;2.00;;;5.10;99.90;;;;;;6218436;23;20503;-81
2022/12/28 02:05:12;;;;;;;4.70;2.25;;;5.10;99.90;;;;;;6218211;23;20005;-82
2022/12/28 02:07:46;;;;;;;11.27;2.25;;;5.10;99.90;;;;;;6191879;23;20375;-81
2022/12/28 02:10:14;;;;;;;12.00;3.40;;;5.00;99.90;;;;;;6191260;23;20023;-81
2022/12/28 02:12:40;;;;;;;13.00;2.15;;;5.10;99.90;;;;;;6192610;23;20011;-82
2022/12/28 02:15:07;;;;;;;7.10;2.70;;;5.10;99.90;;;;;;6193473;23;20036;-82
2022/12/28 02:17:33;;;;;;;7.72;2.20;;;5.10;99.90;;;;;;6192710;23;20023;-81
2022/12/28 02:19:59;;;;;;;9.43;2.40;;;5.10;99.90;;;;;;6192164;23;20359;-81
2022/12/28 02:22:46;;;;;;;4.05;2.25;;;5.10;99.90;;;;;;6193071;23;20563;-82
2022/12/28 02:25:37;;;;;;;7.85;2.60;;;5.10;99.90;;;;;;6219348;23;20001;-82
2022/12/28 02:28:41;;;;;;;6.07;2.15;;;5.10;99.90;;;;;;6202044;23;20035;-82
2022/12/28 02:31:24;;;;;;;6.97;2.30;;;5.10;99.90;;;;;;6230940;23;19997;-84
2022/12/28 02:34:42;;;;;;;8.45;2.85;;;5.10;99.90;;;;;;6204240;23;20020;-83
2022/12/28 02:37:18;;;;;;;10.80;2.63;;;5.10;99.90;;;;;;6046133;23;20011;-83
2022/12/28 02:40:12;;;;;;;5.10;1.90;;;5.10;99.90;;;;;;6173460;23;20086;-83
2022/12/28 02:42:39;;;;;;;8.32;2.65;;;5.10;99.90;;;;;;6196001;23;20454;-83
2022/12/28 02:51:05;;;;;;;6.40;2.33;;;5.10;99.90;;;;;;6174939;23;20339;-83
2022/12/28 02:53:30;;;;;;;6.38;2.40;;;5.10;99.90;;;;;;6194900;23;20390;-83
2022/12/28 02:56:17;;;;;;;6.30;2.40;;;5.10;99.90;;;;;;6194431;23;19997;-83
2022/12/28 02:59:14;;;;;;;8.50;2.60;;;5.10;99.90;;;;;;6194626;23;20007;-82
2022/12/28 03:01:43;;;;;;;7.63;2.58;;;5.20;99.90;;;;;;6196406;23;20000;-82
2022/12/28 03:04:35;;;;;;;9.98;3.22;;;5.20;99.90;;;;;;6217288;23;20083;-83
2022/12/28 03:10:12;;;;;;;6.05;2.50;;;5.20;99.90;;;;;;6217361;23;20135;-83
2022/12/28 03:12:58;;;;;;;10.77;2.47;;;5.20;99.90;;;;;;6191206;23;20008;-82
2022/12/28 03:15:29;;;;;;;9.73;2.55;;;5.20;99.90;;;;;;6217767;23;20023;-82
2022/12/28 03:32:01;;;;;;;8.07;2.40;;;5.30;99.90;;;;;;6218081;23;20012;-82
2022/12/28 03:34:26;;;;;;;8.45;2.33;;;5.30;99.90;;;;;;6217372;23;20005;-83
2022/12/28 03:37:24;;;;;;;8.13;2.70;;;5.30;99.90;;;;;;6191175;23;20046;-83
2022/12/28 03:39:59;;;;;;;9.05;2.80;;;5.30;99.90;;;;;;6190726;23;20011;-83
2022/12/28 03:45:48;;;;;;;10.25;2.88;;;5.40;99.90;;;;;;6218149;23;20039;-83
2022/12/28 03:48:15;;;;;;;7.75;2.83;;;5.50;99.90;;;;;;6190632;23;19997;-83
2022/12/28 03:50:43;;;;;;;6.45;2.85;;;5.60;99.90;;;;;;6216399;23;19996;-83
2022/12/28 03:53:09;;;;;;;11.30;3.33;;;5.60;99.90;;;;;;6190373;23;20001;-83
2022/12/28 03:55:36;;;;;;;8.27;2.55;;;5.60;99.90;;;;;;6189919;23;20058;-83
2022/12/28 03:58:04;;;;;;;8.45;2.70;;;5.60;99.90;;;;;;6189884;23;20428;-84
2022/12/28 04:00:29;;;;;;;5.60;2.55;;;5.70;99.90;;;;;;6188417;23;20091;-82
2022/12/28 04:02:55;;;;;;;12.30;2.97;;;5.80;99.90;;;;;;6189800;23;20024;-81
2022/12/28 04:05:20;;;;;;;5.93;2.80;;;5.80;99.90;;;;;;6190076;23;20432;-81
2022/12/28 04:07:46;;;;;;;7.53;3.47;;;5.80;99.90;;;;;;6191035;23;20008;-82
2022/12/28 04:10:12;;;;;;;6.50;2.83;;;5.70;99.90;;;;;;6190502;23;20009;-82
2022/12/28 04:12:37;;;;;;;9.63;4.50;;;5.70;99.90;;;;;;6190698;23;20007;-82
2022/12/28 04:15:03;;;;;;;8.38;3.22;;;5.60;99.90;;;;;;6190101;23;20009;-82
2022/12/28 04:17:29;;;;;;;7.82;3.40;;;5.60;99.90;;;;;;6190943;23;20005;-82
2022/12/28 04:19:55;;;;;;;5.90;2.72;;;5.60;99.90;;;;;;6190412;23;20015;-82
2022/12/28 04:22:20;;;;;;;6.68;3.30;;;5.60;99.90;;;;;;6190534;23;20008;-82
2022/12/28 04:24:46;;;;;;;8.35;3.08;;;5.50;99.90;;;;;;6190171;23;20005;-82
2022/12/28 04:27:11;;;;;;;10.75;2.80;;;5.50;99.90;;;;;;6189886;23;20035;-82
2022/12/28 04:29:37;;;;;;;11.43;3.55;;;5.60;99.90;;;;;;6190151;23;20111;-82
2022/12/28 04:32:02;;;;;;;9.25;2.95;;;5.60;99.90;;;;;;6189840;23;20436;-82
2022/12/28 04:34:28;;;;;;;8.48;3.15;;;5.70;99.90;;;;;;6216474;23;20005;-82
2022/12/28 04:36:53;;;;;;;8.57;3.10;;;5.70;99.90;;;;;;6190111;23;20011;-81
2022/12/28 04:39:19;;;;;;;10.32;3.00;;;5.80;99.90;;;;;;6189882;23;20012;-80
2022/12/28 04:41:44;;;;;;;10.90;3.17;;;5.70;99.90;;;;;;6190073;23;20012;-80
2022/12/28 04:44:10;;;;;;;8.05;3.50;;;5.70;99.90;;;;;;6188168;23;20016;-80
2022/12/28 04:46:35;;;;;;;16.15;3.75;;;5.80;99.90;;;;;;6187098;23;20417;-80
2022/12/28 04:49:01;;;;;;;6.32;3.30;;;5.80;99.90;;;;;;6214633;23;20068;-79
2022/12/28 04:51:28;;;;;;;6.90;3.53;;;5.70;99.90;;;;;;6214639;23;20008;-80
2022/12/28 04:53:54;;;;;;;6.53;3.35;;;5.70;99.90;;;;;;6214784;23;20000;-80
2022/12/28 04:56:22;;;;;;;5.30;3.53;;;5.70;99.90;;;;;;6188099;23;20001;-81
2022/12/28 04:58:51;;;;;;;11.48;3.22;;;5.70;99.90;;;;;;6188707;23;20011;-82
2022/12/28 05:01:18;;;;;;;8.00;3.10;;;5.70;99.90;;;;;;6188124;23;20008;-81
2022/12/28 05:03:45;;;;;;;12.57;3.00;;;5.80;99.90;;;;;;6189099;23;20015;-80
2022/12/28 05:06:13;;;;;;;9.30;3.10;;;5.70;99.90;;;;;;6215675;23;20024;-81
2022/12/28 05:08:39;;;;;;;8.23;3.22;;;5.70;99.90;;;;;;6188599;23;20001;-81
2022/12/28 05:11:09;;;;;;;10.20;3.28;;;5.80;99.90;;;;;;6188765;23;20099;-81
2022/12/28 05:13:35;;;;;;;8.60;3.17;;;5.80;99.90;;;;;;6189312;23;20001;-81
2022/12/28 05:16:05;;;;;;;9.30;2.78;;;5.80;99.90;;;;;;6188805;23;20243;-82
2022/12/28 05:18:31;;;;;;;;;;;5.80;99.90;;;;;;6189547;23;20467;-81
2022/12/28 05:21:08;;;;;;;4.55;2.50;;;5.80;99.90;;;;;;6188359;23;19900;-81
2022/12/28 05:23:36;;;;;;;16.80;3.63;;;5.90;99.90;;;;;;6189361;23;20008;-81
2022/12/28 05:26:01;;;;;;;5.70;2.63;;;6.00;99.90;;;;;;6216642;23;19997;-81
2022/12/28 05:28:27;;;;;;;7.82;2.85;;;6.00;99.90;;;;;;6192928;23;20032;-81
2022/12/28 05:30:58;;;;;;;5.40;2.63;;;5.90;99.90;;;;;;6215335;23;20001;-81
2022/12/28 05:33:24;;;;;;;6.55;3.10;;;5.90;99.90;;;;;;6190431;23;19997;-81
2022/12/28 05:35:49;;;;;;;6.38;2.92;;;5.90;99.90;;;;;;6189269;23;20015;-81
2022/12/28 05:38:15;;;;;;;4.10;2.78;;;5.90;99.90;;;;;;6188926;23;20040;-81
2022/12/28 05:40:40;;;;;;;6.15;3.90;;;5.90;99.90;;;;;;6189316;23;20004;-82
2022/12/28 05:43:06;;;;;;;8.30;2.70;;;5.90;99.90;;;;;;6216106;23;20035;-81
2022/12/28 05:45:31;;;;;;;8.13;3.55;;;5.90;99.90;;;;;;6189910;23;20462;-81
2022/12/28 05:47:57;;;;;;;9.85;2.67;;;5.90;99.90;;;;;;6189829;23;19997;-81
2022/12/28 05:50:22;;;;;;;6.20;2.47;;;5.90;99.90;;;;;;6215904;23;20011;-81
2022/12/28 05:52:48;;;;;;;8.85;2.83;;;6.00;99.90;;;;;;6216436;23;20003;-81
2022/12/28 05:55:13;;;;;;;12.98;3.30;;;6.00;99.90;;;;;;6190181;23;20009;-81
2022/12/28 05:57:39;;;;;;;5.65;2.92;;;6.00;99.90;;;;;;6216413;23;20052;-81
2022/12/28 06:00:05;;;;;;;7.35;2.78;;;6.10;99.90;;;;;;6216388;23;20012;-82
2022/12/28 06:02:31;;;;;;;8.05;2.70;;;6.10;99.90;;;;;;6216250;23;20016;-79
2022/12/28 06:04:57;;;;;;;12.18;2.75;;;6.10;99.90;;;;;;6189240;23;20005;-80
2022/12/28 06:07:22;;;;;;;6.93;2.75;;;6.20;99.90;;;;;;6216522;23;19999;-82
2022/12/28 06:09:48;;;;;;;5.25;2.38;;;6.20;99.90;;;;;;6188645;23;20044;-82
2022/12/28 06:12:13;;;;;;;5.40;2.88;;;6.20;99.90;;;;;;6216355;23;19997;-82
2022/12/28 06:14:39;;;;;;;2.83;2.42;;;6.30;99.90;;;;;;6190023;23;20009;-82
2022/12/28 06:17:11;;;;;;;4.25;2.40;;;6.30;99.90;;;;;;6189843;23;20075;-83
2022/12/28 06:19:37;;;;;;;9.10;2.75;;;6.40;99.90;;;;;;6216155;23;20036;-83
2022/12/28 06:22:03;;;;;;;8.60;3.22;;;6.40;99.90;;;;;;6218386;23;20004;-83
2022/12/28 06:24:28;;;;;;;7.45;2.95;;;6.50;99.90;;;;;;6191729;23;20424;-82
2022/12/28 06:26:54;;;;;;;7.25;3.03;;;6.50;99.90;;;;;;6192007;23;20455;-82
2022/12/28 06:29:19;;;;;;;4.70;2.63;;;6.50;99.90;;;;;;6217650;23;20007;-83
2022/12/28 06:31:46;;;;;;;7.45;2.72;;;6.60;99.90;;;;;;6191467;23;20000;-82
2022/12/28 06:34:12;;;;;;;5.78;3.08;;;6.60;99.90;;;;;;6191459;23;20579;-82
2022/12/28 06:36:40;;;;;;;14.27;3.00;;;6.70;99.90;;;;;;6191223;23;20006;-82
2022/12/28 06:39:09;;;;;;;5.68;2.67;;;6.70;99.90;;;;;;6191316;23;20004;-83
2022/12/28 06:41:34;;;;;;;5.63;3.00;;;6.80;99.90;;;;;;6218250;23;20493;-83
2022/12/28 06:44:00;;;;;;;4.53;2.90;;;6.80;99.90;;;;;;6191385;23;20068;-82
2022/12/28 06:46:28;;;;;;;4.25;2.92;;;6.80;99.90;;;;;;6191388;23;20004;-82
2022/12/28 06:48:54;;;;;;;8.98;3.67;;;6.80;99.90;;;;;;6191485;23;20035;-81
2022/12/28 06:51:25;;;;;;;5.97;3.13;;;6.80;99.90;;;;;;6191338;23;20001;-81
2022/12/28 06:53:52;;;;;;;7.60;3.58;;;6.90;99.90;;;;;;6190443;23;20009;-81
2022/12/28 06:56:23;;;;;;;5.90;3.40;;;6.90;99.90;;;;;;6216969;23;20053;-81
2022/12/28 06:58:50;;;;;;;8.30;2.67;;;6.90;99.90;;;;;;6188996;23;20600;-81
2022/12/28 07:01:21;;;;;;;7.32;3.42;;;6.90;99.90;;;;;;6188918;23;20091;-81
2022/12/28 07:03:48;;;;;;;6.68;3.22;;;6.90;99.90;;;;;;6189704;23;20040;-82
2022/12/28 07:06:16;;;;;;;4.63;3.03;;;6.90;99.90;;;;;;6189979;23;20004;-82
2022/12/28 07:08:42;;;;;;;7.43;3.45;;;6.90;99.90;;;;;;6189385;23;20471;-83
2022/12/28 07:11:19;;;;;;;7.05;3.13;;;6.90;99.90;;;;;;6215925;23;20004;-80
2022/12/28 07:13:44;;;;;;;7.57;3.53;;;6.90;99.90;;;;;;6216584;23;20003;-81
2022/12/28 07:16:19;;;;;;;5.75;3.00;;;7.00;99.90;;;;;;6216186;23;20032;-81
2022/12/28 07:18:45;;;;;;;10.05;3.83;;;7.00;99.90;;;;;;6216356;23;20004;-81
2022/12/28 07:21:14;;;;;;;6.78;3.38;;;6.90;99.90;;;;;;6216083;23;19996;-80
2022/12/28 07:23:39;;;;;;;8.90;3.80;;;6.90;99.90;;;;;;6189383;23;20054;-81
2022/12/28 07:26:06;;;;;;;9.13;3.80;;;6.90;99.90;;;;;;6189811;23;20035;-83
2022/12/28 07:28:34;;;;;;;4.65;3.60;;;6.90;99.90;;;;;;6189536;23;20383;-82
2022/12/28 07:31:08;;;;;;;8.18;4.30;;;6.80;99.90;;;;;;6215903;23;19993;-82
2022/12/28 07:33:34;;;;;;;5.43;3.63;;;6.90;99.90;;;;;;6189188;23;20325;-82
2022/12/28 07:36:00;;;;;;;9.32;3.80;;;6.90;99.90;;;;;;6216461;23;19997;-82
2022/12/28 07:38:25;;;;;;;5.90;3.75;;;6.90;99.90;;;;;;6189606;23;20011;-82
2022/12/28 07:40:51;;;;;;;12.90;4.10;;;6.90;99.90;;;;;;6189173;23;20012;-82
2022/12/28 07:43:19;;;;;;;5.53;3.05;;;7.00;99.90;;;;;;6189379;23;20001;-80
2022/12/28 07:45:44;;;;;;;5.38;3.55;;;6.90;99.90;;;;;;6216353;23;20012;-80
2022/12/28 07:48:09;;;;;;;9.68;4.15;;;7.00;99.90;;;;;;6189326;23;20683;-80
2022/12/28 07:50:35;;;;;;;7.30;3.60;;;7.00;99.90;;;;;;6215372;23;19997;-80
2022/12/28 07:53:00;;;;;;;10.38;4.18;;;7.00;99.90;;;;;;6189351;23;20004;-82
2022/12/28 07:55:30;;;;;;;6.18;3.85;;;7.00;99.90;;;;;;6194303;23;20008;-85
2022/12/28 07:57:55;;;;;;;8.43;3.67;;;7.10;99.90;;;;;;6192298;23;20447;-80
2022/12/28 08:00:21;;;;;;;8.27;4.20;;;7.10;99.90;;;;;;6187887;23;20009;-79
2022/12/28 08:02:46;;;;;;;5.90;3.80;;;7.10;99.90;;;;;;6188622;23;20016;-79
2022/12/28 08:05:12;;;;;;;5.38;4.15;;;7.10;99.90;;;;;;6188999;23;20005;-79
2022/12/28 08:07:37;;;;;;;7.32;4.32;;;7.10;99.90;;;;;;6189360;23;20363;-79
2022/12/28 08:10:03;;;;;;;9.35;4.05;;;7.00;99.90;;;;;;6188367;23;20372;-79
2022/12/28 08:12:28;;;;;;;7.15;4.28;;;6.90;99.90;;;;;;6189154;23;20024;-78
2022/12/28 08:14:54;;;;;;;5.88;3.60;;;6.80;99.90;;;;;;6189015;23;20329;-78
2022/12/28 08:17:20;;;;;;;8.48;4.32;;;6.90;99.90;;;;;;6189097;23;20001;-79
2022/12/28 08:19:46;;;;;;;9.25;4.28;;;6.90;99.90;;;;;;6188642;23;20015;-81
2022/12/28 08:22:11;;;;;;;8.13;4.07;;;7.00;99.90;;;;;;6215544;23;20080;-80
2022/12/28 08:24:37;;;;;;;6.70;3.92;;;6.90;99.90;;;;;;6188805;23;20547;-81
2022/12/28 08:27:02;;;;;;;9.88;4.10;;;7.00;99.90;;;;;;6188765;23;20047;-80
2022/12/28 08:29:28;;;;;;;6.25;3.85;;;7.10;99.90;;;;;;6187594;23;20004;-80
2022/12/28 08:31:53;;;;;;;4.70;3.47;;;7.10;99.90;;;;;;6187654;23;20350;-81
2022/12/28 08:34:25;;;;;;;8.95;4.03;;;7.20;99.90;;;;;;6187570;23;20005;-79
2022/12/28 08:36:52;;;;;;;16.92;10.57;;;7.20;99.90;;;;;;6214533;23;20027;-80
2022/12/28 08:39:18;;;;;;;7.97;4.00;;;7.30;99.90;;;;;;6187865;23;20587;-79
2022/12/28 08:41:43;;;;;;;6.45;3.55;;;7.40;99.90;;;;;;6188090;23;20035;-79
2022/12/28 08:44:09;;;;;;;9.57;4.28;;;7.40;99.90;;;;;;6188148;23;20004;-79
2022/12/28 08:46:35;;;;;;;8.57;4.85;;;7.40;99.90;;;;;;6214917;23;20005;-79
2022/12/28 08:49:02;;;;;;;8.77;4.20;;;7.50;99.90;;;;;;6215482;23;20193;-79
2022/12/28 08:51:33;;;;;;;6.60;3.88;;;7.40;99.90;;;;;;6187496;23;20000;-79
2022/12/28 08:54:00;;;;;;;6.53;3.78;;;7.60;99.90;;;;;;6184651;23;20349;-79
2022/12/28 08:56:31;;;;;;;7.85;3.88;;;7.60;99.90;;;;;;6211050;23;20008;-79
2022/12/28 08:58:57;;;;;;;6.38;3.70;;;7.60;99.90;;;;;;6184662;23;20057;-79
2022/12/28 09:01:26;;;;;;;9.00;4.20;;;7.60;99.90;;;;;;6184807;23;20004;-80
2022/12/28 09:03:54;;;;;;;5.88;3.70;;;7.70;99.90;;;;;;6185016;23;20008;-81
2022/12/28 09:06:26;;;;;;;5.32;3.47;;;7.70;99.90;;;;;;6184867;23;20498;-81
2022/12/28 09:08:55;;;;;;;4.65;3.15;;;7.70;99.90;;;;;;6184880;23;20005;-80
2022/12/28 09:11:21;;;;;;;6.07;3.72;;;7.80;99.90;;;;;;6183891;23;20019;-80
2022/12/28 09:13:48;;;;;;;7.15;3.67;;;7.80;99.90;;;;;;6184480;23;20004;-80
2022/12/28 09:16:16;;;;;;;5.20;2.72;;;7.80;99.90;;;;;;6184460;23;20004;-80
2022/12/28 09:18:43;;;;;;;6.05;3.40;;;7.90;99.90;;;;;;6211025;23;20039;-79
2022/12/28 09:21:12;;;;;;;6.15;3.85;;;7.80;99.90;;;;;;6183977;23;20007;-79
2022/12/28 09:23:37;;;;;;;5.15;3.35;;;7.90;99.90;;;;;;6211379;23;20047;-79
2022/12/28 09:26:12;;;;;;;6.93;3.60;;;8.00;99.90;;;;;;6209300;23;20004;-79
2022/12/28 09:28:38;;;;;;;10.85;4.13;;;8.00;99.90;;;;;;6182701;23;20004;-79
2022/12/28 09:31:06;;;;;;;7.13;3.58;;;8.10;99.90;;;;;;6183891;23;20498;-79
2022/12/28 09:36:17;;;;;;;7.25;3.22;;;8.10;99.90;;;;;;6211285;23;20486;-79
2022/12/28 09:38:46;;;;;;;5.60;3.30;;;8.10;99.90;;;;;;6184391;23;20008;-79
2022/12/28 09:41:30;;;;;;;5.93;3.47;;;8.10;99.90;;;;;;6183782;23;20005;-79
2022/12/28 09:44:16;;;;;;;9.25;3.30;;;8.20;99.90;;;;;;6210968;23;20005;-79
2022/12/28 09:46:57;;;;;;;5.05;2.75;;;8.20;99.90;;;;;;6211474;23;20435;-79
2022/12/28 09:49:35;;;;;;;5.65;2.97;;;8.30;99.90;;;;;;6184234;23;20401;-79
2022/12/28 09:52:24;;;;;;;4.40;2.80;;;8.30;99.90;;;;;;6184566;23;20083;-79
2022/12/28 09:54:50;;;;;;;4.18;2.60;;;8.40;99.90;;;;;;6188213;23;20058;-79
2022/12/28 09:57:17;;;;;;;5.45;3.15;;;8.50;99.90;;;;;;6216917;23;20008;-79
2022/12/28 09:59:45;;;;;;;5.88;3.22;;;8.40;99.90;;;;;;6189471;23;20031;-79
2022/12/28 10:02:33;;;;;;;5.15;2.65;;;8.40;99.90;;;;;;6216682;23;20015;-79
2022/12/28 10:04:59;;;;;;;5.43;2.67;;;8.50;99.90;;;;;;6216515;23;19997;-78
2022/12/28 10:07:25;;;;;;;4.75;2.35;;;8.60;99.90;;;;;;6190026;23;20059;-80
2022/12/28 10:09:51;;;;;;;5.72;2.60;;;8.60;99.90;;;;;;6189065;23;20005;-79
2022/12/28 10:12:19;;;;;;;4.00;2.58;;;8.70;99.90;;;;;;6189232;23;20039;-78
2022/12/28 10:14:46;;;;;;;4.88;2.58;;;8.70;99.90;;;;;;6216090;23;20087;-79
2022/12/28 10:17:16;;;;;;;4.63;2.72;;;8.70;99.90;;;;;;6215359;23;20034;-79
2022/12/28 10:19:45;;;;;;;8.90;6.05;;;8.60;99.90;;;;;;6188758;23;20032;-79
2022/12/28 10:22:17;;;;;;;4.35;2.60;;;8.70;99.90;;;;;;6188985;23;20063;-78
2022/12/28 10:24:44;;;;;;;5.93;2.70;;;8.90;99.90;;;;;;6212895;23;19997;-79
2022/12/28 10:27:19;;;;;;;4.22;2.80;;;9.00;99.90;;;;;;6186107;23;20340;-79
2022/12/28 10:29:45;;;;;;;4.68;2.78;;;9.20;99.90;;;;;;6185369;23;20106;-79
2022/12/28 10:32:13;;;;;;;5.45;2.97;;;9.30;99.90;;;;;;6186424;23;20420;-79
2022/12/28 10:34:52;;;;;;;4.40;2.42;;;9.20;99.90;;;;;;6185990;23;20004;-79
2022/12/28 10:37:18;;;;;;;2.90;2.60;;;9.20;99.90;;;;;;6186206;23;20013;-79
2022/12/28 10:39:56;;;;;;;7.70;3.42;;;9.20;99.90;;;;;;6212168;23;20144;-79
2022/12/28 10:42:26;;;;;;;4.85;2.70;;;9.30;99.90;;;;;;6212587;23;20004;-78
2022/12/28 10:44:52;;;;;;;3.55;2.50;;;9.30;99.90;;;;;;6185821;23;20059;-79
2022/12/28 10:47:30;;;;;;;4.55;2.50;;;9.40;99.90;;;;;;6212395;23;20050;-79
2022/12/28 10:49:56;;;;;;;3.08;2.25;;;9.40;99.90;;;;;;6185230;23;20001;-80
2022/12/28 10:52:27;;;;;;;3.72;2.00;;;9.40;99.90;;;;;;6185890;23;20008;-79
2022/12/28 10:54:54;;;;;;;;;;;9.30;99.90;;;;;;6186854;23;20004;-80
2022/12/28 10:57:28;;;;;;;4.65;2.88;;;9.60;99.90;;;;;;6185652;23;19928;-79
2022/12/28 11:00:14;;;;;;;3.92;2.63;;;9.80;99.90;;;;;;6213904;23;20040;-80
2022/12/28 11:02:40;;;;;;;2.00;1.70;;;10.00;99.90;;;;;;6185433;23;20092;-80
2022/12/28 11:05:05;;;;;;;4.38;2.50;;;10.70;99.90;;;;;;6185665;23;20032;-80
2022/12/28 11:07:34;;;;;;;2.05;1.75;;;10.70;99.90;;;;;;6185590;23;20111;-80
2022/12/28 11:10:22;;;;;;;5.03;2.20;;;10.30;99.90;;;;;;6185108;23;20001;-79
2022/12/28 11:12:49;;;;;;;3.97;1.95;;;11.00;99.90;;;;;;6212441;23;20007;-81
2022/12/28 11:15:17;;;;;;;2.20;1.65;;;11.10;99.90;;;;;;6189507;23;20004;-79
2022/12/28 11:17:47;;;;;;;3.10;2.00;;;11.60;99.90;;;;;;6222082;23;20004;-78
2022/12/28 11:20:17;;;;;;;2.55;1.88;;;11.50;99.90;;;;;;6191659;23;20028;-80
2022/12/28 11:22:43;;;;;;;2.92;1.75;;;11.40;99.90;;;;;;6186557;23;20015;-79
2022/12/28 11:25:16;;;;;;;4.45;2.20;;;11.00;99.90;;;;;;6185766;23;20035;-80
2022/12/28 11:27:42;;;;;;;3.75;1.60;;;10.80;99.90;;;;;;6185589;23;20514;-80
2022/12/28 11:30:18;;;;;;;3.63;1.60;;;10.40;99.90;;;;;;6211850;23;20067;-80
2022/12/28 11:32:52;;;;;;;1.67;1.50;;;10.20;99.90;;;;;;6186033;23;20055;-80
2022/12/28 11:35:21;;;;;;;2.28;1.70;;;10.00;99.90;;;;;;6185722;23;20011;-80
2022/12/28 11:37:49;;;;;;;5.43;1.90;;;9.90;99.90;;;;;;6186409;23;20063;-80
2022/12/28 11:40:42;;;;;;;6.78;2.13;;;9.80;99.90;;;;;;6185799;23;20028;-80
2022/12/28 11:43:30;;;;;;;4.57;2.15;;;9.80;99.90;;;;;;6186104;23;20019;-79
2022/12/28 11:46:19;;;;;;;2.22;1.58;;;9.80;99.90;;;;;;6185622;23;20298;-79
2022/12/28 11:49:04;;;;;;;16.98;10.40;;;9.90;99.90;;;;;;6188470;23;20008;-79
2022/12/28 11:51:31;;;;;;;5.20;2.03;;;9.80;99.90;;;;;;6185003;23;20004;-79
2022/12/28 11:54:29;;;;;;;2.30;1.77;;;9.80;99.90;;;;;;6185384;23;20466;-79
2022/12/28 11:56:58;;;;;;;1.85;1.50;;;9.70;99.90;;;;;;6211353;23;20000;-79
2022/12/28 11:59:29;;;;;;;4.13;1.40;;;9.80;99.90;;;;;;6184663;23;20360;-79
2022/12/28 12:02:00;;;;;;;1.88;1.60;;;9.90;99.90;;;;;;6212609;23;20248;-79
2022/12/28 12:04:32;;;;;;;2.13;1.45;;;10.00;99.90;;;;;;6212070;23;20001;-79
2022/12/28 12:06:57;;;;;;;2.25;1.55;;;10.00;99.90;;;;;;6185606;23;20004;-79
2022/12/28 12:09:37;;;;;;;2.47;1.60;;;9.90;99.90;;;;;;6211115;23;20004;-79
2022/12/28 12:12:29;;;;;;;2.88;1.90;;;9.80;99.90;;;;;;6212107;23;20005;-79
2022/12/28 12:15:00;;;;;;;3.42;1.52;;;9.70;99.90;;;;;;6191970;23;20000;-79
2022/12/28 12:17:40;;;;;;;2.30;1.73;;;9.70;99.90;;;;;;6212349;23;20028;-79
2022/12/28 12:20:49;;;;;;;3.80;1.35;;;9.70;99.90;;;;;;6184296;23;20348;-79
2022/12/28 12:23:25;;;;;;;1.60;1.40;;;9.80;99.90;;;;;;6061108;23;20388;-79
2022/12/28 12:25:53;;;;;;;2.63;1.65;;;9.80;99.90;;;;;;6163843;23;20096;-78
2022/12/28 12:28:42;;;;;;;3.53;2.13;;;9.80;99.90;;;;;;6184971;23;20400;-78
2022/12/28 12:31:14;;;;;;;1.65;1.40;;;9.80;99.90;;;;;;6184217;23;20028;-78
2022/12/28 12:33:44;;;;;;;3.55;1.60;;;9.70;99.90;;;;;;6184055;23;20392;-78
2022/12/28 12:36:53;;;;;;;2.03;1.38;;;9.70;99.90;;;;;;6184871;23;20451;-78
2022/12/28 12:39:48;;;;;;;1.92;1.70;;;9.70;99.90;;;;;;6135851;23;20011;-78
2022/12/28 12:42:41;;;;;;;3.13;1.77;;;9.60;99.90;;;;;;6184668;23;20078;-79
2022/12/28 12:45:30;;;;;;;4.03;1.65;;;9.60;99.90;;;;;;6184702;23;20004;-78
2022/12/28 12:48:21;;;;;;;2.17;1.88;;;9.60;99.90;;;;;;6184909;23;20008;-78
2022/12/28 12:51:04;;;;;;;3.72;1.80;;;9.60;99.90;;;;;;6184040;23;20000;-79
2022/12/28 12:53:48;;;;;;;5.45;2.08;;;9.60;99.90;;;;;;6184832;23;20051;-79
2022/12/28 12:56:48;;;;;;;4.95;2.22;;;9.60;99.90;;;;;;6184614;23;20051;-79
2022/12/28 12:59:29;;;;;;;2.63;2.28;;;9.60;99.90;;;;;;6184097;23;20013;-80
2022/12/28 13:02:07;;;;;;;6.63;2.53;;;9.50;99.90;;;;;;6211579;23;20122;-80
2022/12/28 13:04:34;;;;;;;5.30;2.70;;;9.50;99.90;;;;;;6184479;23;20107;-79
2022/12/28 13:07:04;;;;;;;5.40;2.40;;;9.40;99.90;;;;;;6210911;23;20072;-80
2022/12/28 13:09:33;;;;;;;5.13;2.55;;;9.40;99.90;;;;;;6184336;23;20005;-80
2022/12/28 13:12:00;;;;;;;8.95;2.80;;;9.40;99.90;;;;;;6186991;23;20461;-80
2022/12/28 13:14:27;;;;;;;6.45;3.03;;;9.30;99.90;;;;;;6187934;23;20031;-80
2022/12/28 13:16:55;;;;;;;4.82;3.15;;;9.20;99.90;;;;;;6188416;23;20086;-77
2022/12/28 13:19:24;;;;;;;4.68;2.72;;;9.20;99.90;;;;;;6187859;23;20005;-78
2022/12/28 13:21:51;;;;;;;4.80;2.70;;;9.30;99.90;;;;;;6187859;23;20079;-78
2022/12/28 13:24:21;;;;;;;4.75;2.50;;;9.20;99.90;;;;;;6188381;23;20000;-78
2022/12/28 13:26:46;;;;;;;5.20;2.72;;;9.10;99.90;;;;;;6214757;23;20016;-78
2022/12/28 13:29:16;;;;;;;7.80;3.00;;;9.20;99.90;;;;;;6187237;23;20406;-79
2022/12/28 13:31:48;;;;;;;9.18;3.08;;;9.20;99.90;;;;;;6187660;23;20012;-79
2022/12/28 13:34:23;;;;;;;6.03;3.03;;;9.20;99.90;;;;;;6187479;23;20005;-78
2022/12/28 13:36:55;;;;;;;7.38;2.92;;;9.30;99.90;;;;;;6187981;23;20008;-79
2022/12/28 13:39:21;;;;;;;5.75;3.10;;;9.20;99.90;;;;;;6187484;23;20396;-79
2022/12/28 13:41:59;;;;;;;5.18;3.08;;;9.20;99.90;;;;;;6188259;23;20013;-79
2022/12/28 13:44:51;;;;;;;5.80;2.88;;;9.30;99.90;;;;;;6188066;23;20012;-78